sensor_id;sensor_type;location;lat;lon;timestamp;temperature;humidity
20977;DHT22;10647;51.016;3.720;2023-03-21T00:01:03;13.10;99.90
20977;DHT22;10647;51.016;3.720;2023-03-21T00:03:32;13.10;99.90
20977;DHT22;10647;51.016;3.720;2023-03-21T00:06:07;13.10;99.90
20977;DHT22;10647;51.016;3.720;2023-03-21T00:08:37;13.10;99.90
20977;DHT22;10647;51.016;3.720;2023-03-21T00:11:07;13.10;99.90
20977;DHT22;10647;51.016;3.720;2023-03-21T00:13:35;13.10;99.90
20977;DHT22;10647;51.016;3.720;2023-03-21T00:19:00;13.20;99.90
20977;DHT22;10647;51.016;3.720;2023-03-21T00:21:29;13.20;99.90
20977;DHT22;10647;51.016;3.720;2023-03-21T00:23:59;13.20;99.90
20977;DHT22;10647;51.016;3.720;2023-03-21T00:26:26;13.20;99.90
20977;DHT22;10647;51.016;3.720;2023-03-21T00:28:54;13.20;99.90
20977;DHT22;10647;51.016;3.720;2023-03-21T00:31:21;13.20;99.90
20977;DHT22;10647;51.016;3.720;2023-03-21T00:33:49;13.20;99.90
20977;DHT22;10647;51.016;3.720;2023-03-21T00:36:17;13.20;99.90
20977;DHT22;10647;51.016;3.720;2023-03-21T00:38:45;13.20;99.90
20977;DHT22;10647;51.016;3.720;2023-03-21T00:41:12;13.10;99.90
20977;DHT22;10647;51.016;3.720;2023-03-21T00:43:40;13.20;99.90
20977;DHT22;10647;51.016;3.720;2023-03-21T00:46:08;13.10;99.90
20977;DHT22;10647;51.016;3.720;2023-03-21T00:48:36;13.10;99.90
20977;DHT22;10647;51.016;3.720;2023-03-21T00:51:10;13.10;99.90
20977;DHT22;10647;51.016;3.720;2023-03-21T00:53:34;13.10;99.90
20977;DHT22;10647;51.016;3.720;2023-03-21T00:56:01;13.10;99.90
20977;DHT22;10647;51.016;3.720;2023-03-21T00:58:29;13.00;99.90
20977;DHT22;10647;51.016;3.720;2023-03-21T01:00:56;12.90;99.90
20977;DHT22;10647;51.016;3.720;2023-03-21T01:03:24;13.00;99.90
20977;DHT22;10647;51.016;3.720;2023-03-21T01:05:52;12.90;99.90
20977;DHT22;10647;51.016;3.720;2023-03-21T01:08:34;12.90;99.90
20977;DHT22;10647;51.016;3.720;2023-03-21T01:11:05;12.80;99.90
20977;DHT22;10647;51.016;3.720;2023-03-21T01:13:33;12.80;99.90
20977;DHT22;10647;51.016;3.720;2023-03-21T01:16:00;12.80;99.90
20977;DHT22;10647;51.016;3.720;2023-03-21T01:18:30;12.80;99.90
20977;DHT22;10647;51.016;3.720;2023-03-21T01:21:07;12.70;99.90
20977;DHT22;10647;51.016;3.720;2023-03-21T01:23:35;12.70;99.90
20977;DHT22;10647;51.016;3.720;2023-03-21T01:26:04;12.70;99.90
20977;DHT22;10647;51.016;3.720;2023-03-21T01:28:34;12.70;99.90
20977;DHT22;10647;51.016;3.720;2023-03-21T01:31:03;12.70;99.90
20977;DHT22;10647;51.016;3.720;2023-03-21T01:33:32;12.70;99.90
20977;DHT22;10647;51.016;3.720;2023-03-21T01:36:00;12.70;99.90
20977;DHT22;10647;51.016;3.720;2023-03-21T01:38:27;12.70;99.90
20977;DHT22;10647;51.016;3.720;2023-03-21T01:40:55;12.70;99.90
20977;DHT22;10647;51.016;3.720;2023-03-21T01:43:33;12.70;99.90
20977;DHT22;10647;51.016;3.720;2023-03-21T01:48:57;12.80;99.90
20977;DHT22;10647;51.016;3.720;2023-03-21T01:51:26;12.70;99.90
20977;DHT22;10647;51.016;3.720;2023-03-21T01:53:54;12.70;99.90
20977;DHT22;10647;51.016;3.720;2023-03-21T01:56:33;12.70;99.90
20977;DHT22;10647;51.016;3.720;2023-03-21T02:01:55;12.70;99.90
20977;DHT22;10647;51.016;3.720;2023-03-21T02:04:24;12.60;99.90
20977;DHT22;10647;51.016;3.720;2023-03-21T02:07:06;12.60;99.90
20977;DHT22;10647;51.016;3.720;2023-03-21T02:09:37;12.50;99.90
20977;DHT22;10647;51.016;3.720;2023-03-21T02:12:07;12.50;99.90
20977;DHT22;10647;51.016;3.720;2023-03-21T02:17:31;12.60;99.90
20977;DHT22;10647;51.016;3.720;2023-03-21T02:20:19;12.70;99.90
20977;DHT22;10647;51.016;3.720;2023-03-21T02:26:00;12.60;99.90
20977;DHT22;10647;51.016;3.720;2023-03-21T02:28:52;12.60;99.90
20977;DHT22;10647;51.016;3.720;2023-03-21T02:34:33;12.50;99.90
20977;DHT22;10647;51.016;3.720;2023-03-21T02:37:22;12.60;99.90
20977;DHT22;10647;51.016;3.720;2023-03-21T02:43:02;12.70;99.90
20977;DHT22;10647;51.016;3.720;2023-03-21T02:45:35;12.70;99.90
20977;DHT22;10647;51.016;3.720;2023-03-21T02:48:09;12.70;99.90
20977;DHT22;10647;51.016;3.720;2023-03-21T02:50:40;12.70;99.90
20977;DHT22;10647;51.016;3.720;2023-03-21T02:53:10;12.70;99.90
20977;DHT22;10647;51.016;3.720;2023-03-21T02:55:39;12.70;99.90
20977;DHT22;10647;51.016;3.720;2023-03-21T02:58:11;12.80;99.90
20977;DHT22;10647;51.016;3.720;2023-03-21T03:00:40;12.80;99.90
20977;DHT22;10647;51.016;3.720;2023-03-21T03:03:09;12.80;99.90
20977;DHT22;10647;51.016;3.720;2023-03-21T03:05:46;12.90;99.90
20977;DHT22;10647;51.016;3.720;2023-03-21T03:11:33;12.90;99.90
20977;DHT22;10647;51.016;3.720;2023-03-21T03:19:12;12.80;99.90
20977;DHT22;10647;51.016;3.720;2023-03-21T03:21:43;12.90;99.90
20977;DHT22;10647;51.016;3.720;2023-03-21T03:24:21;12.80;99.90
20977;DHT22;10647;51.016;3.720;2023-03-21T03:26:54;12.90;99.90
20977;DHT22;10647;51.016;3.720;2023-03-21T03:29:24;12.90;99.90
20977;DHT22;10647;51.016;3.720;2023-03-21T03:32:01;12.90;99.90
20977;DHT22;10647;51.016;3.720;2023-03-21T03:34:50;12.90;99.90
20977;DHT22;10647;51.016;3.720;2023-03-21T03:37:26;13.00;99.90
20977;DHT22;10647;51.016;3.720;2023-03-21T03:40:04;13.00;99.90
20977;DHT22;10647;51.016;3.720;2023-03-21T03:45:42;13.00;99.90
20977;DHT22;10647;51.016;3.720;2023-03-21T03:48:06;13.00;99.90
20977;DHT22;10647;51.016;3.720;2023-03-21T03:50:43;13.00;99.90
20977;DHT22;10647;51.016;3.720;2023-03-21T03:53:42;13.00;99.90
20977;DHT22;10647;51.016;3.720;2023-03-21T03:56:10;13.00;99.90
20977;DHT22;10647;51.016;3.720;2023-03-21T03:58:39;13.00;99.90
20977;DHT22;10647;51.016;3.720;2023-03-21T04:01:07;13.00;99.90
20977;DHT22;10647;51.016;3.720;2023-03-21T04:03:37;13.00;99.90
20977;DHT22;10647;51.016;3.720;2023-03-21T04:06:06;13.00;99.90
20977;DHT22;10647;51.016;3.720;2023-03-21T04:08:34;12.80;99.90
20977;DHT22;10647;51.016;3.720;2023-03-21T04:11:03;12.70;99.90
20977;DHT22;10647;51.016;3.720;2023-03-21T04:13:32;12.60;99.90
20977;DHT22;10647;51.016;3.720;2023-03-21T04:15:59;12.50;99.90
20977;DHT22;10647;51.016;3.720;2023-03-21T04:18:27;12.50;99.90
20977;DHT22;10647;51.016;3.720;2023-03-21T04:20:55;12.40;99.90
20977;DHT22;10647;51.016;3.720;2023-03-21T04:23:22;12.30;99.90
20977;DHT22;10647;51.016;3.720;2023-03-21T04:25:50;12.30;99.90
20977;DHT22;10647;51.016;3.720;2023-03-21T04:28:17;12.20;99.90
20977;DHT22;10647;51.016;3.720;2023-03-21T04:30:47;12.10;99.90
20977;DHT22;10647;51.016;3.720;2023-03-21T04:33:15;12.10;99.90
20977;DHT22;10647;51.016;3.720;2023-03-21T04:35:43;12.10;99.90
20977;DHT22;10647;51.016;3.720;2023-03-21T04:38:11;12.00;99.90
20977;DHT22;10647;51.016;3.720;2023-03-21T04:40:39;12.00;99.90
20977;DHT22;10647;51.016;3.720;2023-03-21T04:43:06;12.10;99.90
20977;DHT22;10647;51.016;3.720;2023-03-21T04:45:36;12.10;99.90
20977;DHT22;10647;51.016;3.720;2023-03-21T04:48:04;12.10;99.90
20977;DHT22;10647;51.016;3.720;2023-03-21T04:50:51;12.10;99.90
20977;DHT22;10647;51.016;3.720;2023-03-21T04:53:18;12.00;99.90
20977;DHT22;10647;51.016;3.720;2023-03-21T04:55:46;12.00;99.90
20977;DHT22;10647;51.016;3.720;2023-03-21T04:58:33;12.00;99.90
20977;DHT22;10647;51.016;3.720;2023-03-21T05:01:00;12.00;99.90
20977;DHT22;10647;51.016;3.720;2023-03-21T05:03:30;12.10;99.90
20977;DHT22;10647;51.016;3.720;2023-03-21T05:06:01;12.10;99.90
20977;DHT22;10647;51.016;3.720;2023-03-21T05:08:28;12.00;99.90
20977;DHT22;10647;51.016;3.720;2023-03-21T05:10:56;12.00;99.90
20977;DHT22;10647;51.016;3.720;2023-03-21T05:13:23;11.90;99.90
20977;DHT22;10647;51.016;3.720;2023-03-21T05:15:51;11.90;99.90
20977;DHT22;10647;51.016;3.720;2023-03-21T05:18:18;11.90;99.90
20977;DHT22;10647;51.016;3.720;2023-03-21T05:20:47;11.90;99.90
20977;DHT22;10647;51.016;3.720;2023-03-21T05:23:17;11.90;99.90
20977;DHT22;10647;51.016;3.720;2023-03-21T05:25:50;11.90;99.90
20977;DHT22;10647;51.016;3.720;2023-03-21T05:28:18;11.90;99.90
20977;DHT22;10647;51.016;3.720;2023-03-21T05:30:45;12.00;99.90
20977;DHT22;10647;51.016;3.720;2023-03-21T05:33:19;12.00;99.90
20977;DHT22;10647;51.016;3.720;2023-03-21T05:35:50;12.00;99.90
20977;DHT22;10647;51.016;3.720;2023-03-21T05:38:18;12.00;99.90
20977;DHT22;10647;51.016;3.720;2023-03-21T05:40:47;12.00;99.90
20977;DHT22;10647;51.016;3.720;2023-03-21T05:43:14;12.00;99.90
20977;DHT22;10647;51.016;3.720;2023-03-21T05:45:42;12.00;99.90
20977;DHT22;10647;51.016;3.720;2023-03-21T05:48:10;12.00;99.90
20977;DHT22;10647;51.016;3.720;2023-03-21T05:50:38;12.10;99.90
20977;DHT22;10647;51.016;3.720;2023-03-21T05:53:06;12.10;99.90
20977;DHT22;10647;51.016;3.720;2023-03-21T05:55:33;12.20;99.90
20977;DHT22;10647;51.016;3.720;2023-03-21T05:58:01;12.20;99.90
20977;DHT22;10647;51.016;3.720;2023-03-21T06:00:28;12.10;99.90
20977;DHT22;10647;51.016;3.720;2023-03-21T06:02:56;12.10;99.90
20977;DHT22;10647;51.016;3.720;2023-03-21T06:05:24;12.10;99.90
20977;DHT22;10647;51.016;3.720;2023-03-21T06:07:51;12.10;99.90
20977;DHT22;10647;51.016;3.720;2023-03-21T06:10:19;12.10;99.90
20977;DHT22;10647;51.016;3.720;2023-03-21T06:12:46;12.20;99.90
20977;DHT22;10647;51.016;3.720;2023-03-21T06:15:14;12.20;99.90
20977;DHT22;10647;51.016;3.720;2023-03-21T06:17:42;12.20;99.90
20977;DHT22;10647;51.016;3.720;2023-03-21T06:20:10;12.20;99.90
20977;DHT22;10647;51.016;3.720;2023-03-21T06:22:38;12.20;99.90
20977;DHT22;10647;51.016;3.720;2023-03-21T06:25:07;12.30;99.90
20977;DHT22;10647;51.016;3.720;2023-03-21T06:27:34;12.30;99.90
20977;DHT22;10647;51.016;3.720;2023-03-21T06:30:03;12.30;99.90
20977;DHT22;10647;51.016;3.720;2023-03-21T06:32:31;12.30;99.90
20977;DHT22;10647;51.016;3.720;2023-03-21T06:34:58;12.30;99.90
20977;DHT22;10647;51.016;3.720;2023-03-21T06:37:26;12.30;99.90
20977;DHT22;10647;51.016;3.720;2023-03-21T06:39:54;12.40;99.90
20977;DHT22;10647;51.016;3.720;2023-03-21T06:42:21;12.40;99.90
20977;DHT22;10647;51.016;3.720;2023-03-21T06:44:49;12.50;99.90
20977;DHT22;10647;51.016;3.720;2023-03-21T06:47:17;12.50;99.90
20977;DHT22;10647;51.016;3.720;2023-03-21T06:49:44;12.50;99.90
20977;DHT22;10647;51.016;3.720;2023-03-21T06:52:12;12.60;99.90
20977;DHT22;10647;51.016;3.720;2023-03-21T06:54:39;12.70;99.90
20977;DHT22;10647;51.016;3.720;2023-03-21T06:57:07;12.80;99.90
20977;DHT22;10647;51.016;3.720;2023-03-21T06:59:35;12.80;99.90
20977;DHT22;10647;51.016;3.720;2023-03-21T07:02:03;12.90;99.90
20977;DHT22;10647;51.016;3.720;2023-03-21T07:04:30;12.90;99.90
20977;DHT22;10647;51.016;3.720;2023-03-21T07:06:58;12.90;99.90
20977;DHT22;10647;51.016;3.720;2023-03-21T07:09:25;13.00;99.90
20977;DHT22;10647;51.016;3.720;2023-03-21T07:11:53;13.00;99.90
20977;DHT22;10647;51.016;3.720;2023-03-21T07:14:23;13.00;99.90
20977;DHT22;10647;51.016;3.720;2023-03-21T07:16:51;13.10;99.90
20977;DHT22;10647;51.016;3.720;2023-03-21T07:19:18;13.10;99.90
20977;DHT22;10647;51.016;3.720;2023-03-21T07:21:46;13.20;99.90
20977;DHT22;10647;51.016;3.720;2023-03-21T07:24:13;13.30;99.90
20977;DHT22;10647;51.016;3.720;2023-03-21T07:26:43;13.40;99.90
20977;DHT22;10647;51.016;3.720;2023-03-21T07:29:10;13.50;99.90
20977;DHT22;10647;51.016;3.720;2023-03-21T07:31:38;13.60;99.90
20977;DHT22;10647;51.016;3.720;2023-03-21T07:34:06;13.70;99.90
20977;DHT22;10647;51.016;3.720;2023-03-21T07:36:34;13.70;99.90
20977;DHT22;10647;51.016;3.720;2023-03-21T07:39:02;13.90;99.90
20977;DHT22;10647;51.016;3.720;2023-03-21T07:41:30;13.90;99.90
20977;DHT22;10647;51.016;3.720;2023-03-21T07:43:58;14.00;99.90
20977;DHT22;10647;51.016;3.720;2023-03-21T07:46:45;14.10;99.90
20977;DHT22;10647;51.016;3.720;2023-03-21T07:49:12;14.10;99.90
20977;DHT22;10647;51.016;3.720;2023-03-21T07:51:40;14.20;99.90
20977;DHT22;10647;51.016;3.720;2023-03-21T07:54:08;14.30;99.90
20977;DHT22;10647;51.016;3.720;2023-03-21T07:56:35;14.30;99.90
20977;DHT22;10647;51.016;3.720;2023-03-21T07:59:03;14.40;99.90
20977;DHT22;10647;51.016;3.720;2023-03-21T08:01:31;14.50;99.90
20977;DHT22;10647;51.016;3.720;2023-03-21T08:03:58;14.60;99.90
20977;DHT22;10647;51.016;3.720;2023-03-21T08:06:27;14.80;99.90
20977;DHT22;10647;51.016;3.720;2023-03-21T08:08:57;14.90;99.90
20977;DHT22;10647;51.016;3.720;2023-03-21T08:11:44;15.00;99.90
20977;DHT22;10647;51.016;3.720;2023-03-21T08:14:11;15.10;99.90
20977;DHT22;10647;51.016;3.720;2023-03-21T08:16:39;15.30;99.90
20977;DHT22;10647;51.016;3.720;2023-03-21T08:19:06;15.40;99.90
20977;DHT22;10647;51.016;3.720;2023-03-21T08:21:34;15.50;99.90
20977;DHT22;10647;51.016;3.720;2023-03-21T08:24:04;15.60;99.90
20977;DHT22;10647;51.016;3.720;2023-03-21T08:26:32;15.80;99.90
20977;DHT22;10647;51.016;3.720;2023-03-21T08:29:00;16.00;99.90
20977;DHT22;10647;51.016;3.720;2023-03-21T08:31:30;15.90;99.90
20977;DHT22;10647;51.016;3.720;2023-03-21T08:33:57;16.10;99.90
20977;DHT22;10647;51.016;3.720;2023-03-21T08:36:25;16.10;99.90
20977;DHT22;10647;51.016;3.720;2023-03-21T08:38:53;16.20;99.90
20977;DHT22;10647;51.016;3.720;2023-03-21T08:41:22;16.20;99.90
20977;DHT22;10647;51.016;3.720;2023-03-21T08:43:51;16.20;99.90
20977;DHT22;10647;51.016;3.720;2023-03-21T08:46:18;16.20;99.90
20977;DHT22;10647;51.016;3.720;2023-03-21T08:48:46;16.20;99.90
20977;DHT22;10647;51.016;3.720;2023-03-21T08:51:13;16.30;99.90
20977;DHT22;10647;51.016;3.720;2023-03-21T08:53:41;16.20;99.90
20977;DHT22;10647;51.016;3.720;2023-03-21T08:56:10;16.00;99.90
20977;DHT22;10647;51.016;3.720;2023-03-21T08:58:38;15.90;99.90
20977;DHT22;10647;51.016;3.720;2023-03-21T09:01:05;16.00;99.90
20977;DHT22;10647;51.016;3.720;2023-03-21T09:03:35;16.00;99.90
20977;DHT22;10647;51.016;3.720;2023-03-21T09:06:03;16.00;99.90
20977;DHT22;10647;51.016;3.720;2023-03-21T09:08:31;16.00;99.90
20977;DHT22;10647;51.016;3.720;2023-03-21T09:10:58;16.10;99.90
20977;DHT22;10647;51.016;3.720;2023-03-21T09:13:26;16.00;99.90
20977;DHT22;10647;51.016;3.720;2023-03-21T09:15:54;16.00;99.90
20977;DHT22;10647;51.016;3.720;2023-03-21T09:18:23;15.90;99.90
20977;DHT22;10647;51.016;3.720;2023-03-21T09:20:52;16.00;99.90
20977;DHT22;10647;51.016;3.720;2023-03-21T09:23:20;16.00;99.90
20977;DHT22;10647;51.016;3.720;2023-03-21T09:25:48;16.00;99.90
20977;DHT22;10647;51.016;3.720;2023-03-21T09:28:19;16.30;99.90
20977;DHT22;10647;51.016;3.720;2023-03-21T09:30:47;16.50;99.90
20977;DHT22;10647;51.016;3.720;2023-03-21T09:33:15;16.70;99.90
20977;DHT22;10647;51.016;3.720;2023-03-21T09:35:44;17.00;99.90
20977;DHT22;10647;51.016;3.720;2023-03-21T09:38:11;17.00;99.90
20977;DHT22;10647;51.016;3.720;2023-03-21T09:46:37;17.50;99.90
20977;DHT22;10647;51.016;3.720;2023-03-21T09:49:06;17.60;99.90
20977;DHT22;10647;51.016;3.720;2023-03-21T09:51:39;17.60;99.90
20977;DHT22;10647;51.016;3.720;2023-03-21T09:54:16;17.60;99.90
20977;DHT22;10647;51.016;3.720;2023-03-21T09:59:39;17.70;99.90
20977;DHT22;10647;51.016;3.720;2023-03-21T10:05:29;17.70;99.90
20977;DHT22;10647;51.016;3.720;2023-03-21T10:08:52;17.80;99.90
20977;DHT22;10647;51.016;3.720;2023-03-21T10:10:49;17.70;99.90
20977;DHT22;10647;51.016;3.720;2023-03-21T10:13:24;17.40;99.90
20977;DHT22;10647;51.016;3.720;2023-03-21T10:15:48;17.20;99.90
20977;DHT22;10647;51.016;3.720;2023-03-21T10:18:22;17.30;99.90
20977;DHT22;10647;51.016;3.720;2023-03-21T10:20:46;17.20;99.90
20977;DHT22;10647;51.016;3.720;2023-03-21T10:23:16;17.00;99.90
20977;DHT22;10647;51.016;3.720;2023-03-21T10:25:56;16.60;99.90
20977;DHT22;10647;51.016;3.720;2023-03-21T10:28:32;16.40;99.90
20977;DHT22;10647;51.016;3.720;2023-03-21T10:30:57;16.30;99.90
20977;DHT22;10647;51.016;3.720;2023-03-21T10:33:28;16.40;99.90
20977;DHT22;10647;51.016;3.720;2023-03-21T10:36:09;16.50;99.90
20977;DHT22;10647;51.016;3.720;2023-03-21T10:38:59;16.70;99.90
20977;DHT22;10647;51.016;3.720;2023-03-21T10:41:28;17.10;99.90
20977;DHT22;10647;51.016;3.720;2023-03-21T10:44:18;17.40;99.90
20977;DHT22;10647;51.016;3.720;2023-03-21T10:46:54;17.30;99.90
20977;DHT22;10647;51.016;3.720;2023-03-21T10:49:23;17.90;99.90
20977;DHT22;10647;51.016;3.720;2023-03-21T10:51:57;18.60;99.90
20977;DHT22;10647;51.016;3.720;2023-03-21T10:54:27;19.20;99.90
20977;DHT22;10647;51.016;3.720;2023-03-21T10:57:20;19.20;99.90
20977;DHT22;10647;51.016;3.720;2023-03-21T10:59:56;19.00;99.90
20977;DHT22;10647;51.016;3.720;2023-03-21T11:02:35;19.10;99.90
20977;DHT22;10647;51.016;3.720;2023-03-21T11:05:25;19.20;99.90
20977;DHT22;10647;51.016;3.720;2023-03-21T11:07:58;19.10;99.90
20977;DHT22;10647;51.016;3.720;2023-03-21T11:10:29;19.00;99.90
20977;DHT22;10647;51.016;3.720;2023-03-21T11:13:00;19.00;99.90
20977;DHT22;10647;51.016;3.720;2023-03-21T11:18:17;19.40;99.90
20977;DHT22;10647;51.016;3.720;2023-03-21T11:21:04;19.30;99.90
20977;DHT22;10647;51.016;3.720;2023-03-21T11:23:34;19.30;99.90
20977;DHT22;10647;51.016;3.720;2023-03-21T11:26:07;19.80;99.90
20977;DHT22;10647;51.016;3.720;2023-03-21T11:28:38;20.20;99.90
20977;DHT22;10647;51.016;3.720;2023-03-21T11:31:07;20.40;99.90
20977;DHT22;10647;51.016;3.720;2023-03-21T11:33:42;20.20;99.90
20977;DHT22;10647;51.016;3.720;2023-03-21T11:41:40;20.00;99.90
20977;DHT22;10647;51.016;3.720;2023-03-21T11:44:22;20.10;99.90
20977;DHT22;10647;51.016;3.720;2023-03-21T11:46:39;20.00;99.90
20977;DHT22;10647;51.016;3.720;2023-03-21T11:49:08;20.30;99.90
20977;DHT22;10647;51.016;3.720;2023-03-21T11:51:40;20.70;99.90
20977;DHT22;10647;51.016;3.720;2023-03-21T11:54:11;21.10;99.90
20977;DHT22;10647;51.016;3.720;2023-03-21T11:56:44;21.30;99.90
20977;DHT22;10647;51.016;3.720;2023-03-21T11:59:30;21.10;99.90
20977;DHT22;10647;51.016;3.720;2023-03-21T12:05:08;20.90;99.90
20977;DHT22;10647;51.016;3.720;2023-03-21T12:07:56;20.70;99.90
20977;DHT22;10647;51.016;3.720;2023-03-21T12:21:40;19.50;99.90
20977;DHT22;10647;51.016;3.720;2023-03-21T12:27:09;19.00;99.90
20977;DHT22;10647;51.016;3.720;2023-03-21T12:32:47;19.40;99.90
20977;DHT22;10647;51.016;3.720;2023-03-21T12:46:44;19.30;99.90
20977;DHT22;10647;51.016;3.720;2023-03-21T12:49:16;19.10;99.90
20977;DHT22;10647;51.016;3.720;2023-03-21T12:51:48;18.80;99.90
20977;DHT22;10647;51.016;3.720;2023-03-21T12:57:14;18.30;99.90
20977;DHT22;10647;51.016;3.720;2023-03-21T13:05:35;18.20;99.90
20977;DHT22;10647;51.016;3.720;2023-03-21T13:08:27;18.10;99.90
20977;DHT22;10647;51.016;3.720;2023-03-21T13:11:01;18.10;99.90
20977;DHT22;10647;51.016;3.720;2023-03-21T13:24:50;17.40;99.90
20977;DHT22;10647;51.016;3.720;2023-03-21T13:27:36;17.20;99.90
20977;DHT22;10647;51.016;3.720;2023-03-21T13:30:17;17.00;99.90
20977;DHT22;10647;51.016;3.720;2023-03-21T13:33:06;16.80;99.90
20977;DHT22;10647;51.016;3.720;2023-03-21T13:38:36;16.70;99.90
20977;DHT22;10647;51.016;3.720;2023-03-21T13:41:06;16.90;99.90
20977;DHT22;10647;51.016;3.720;2023-03-21T13:49:36;17.10;99.90
20977;DHT22;10647;51.016;3.720;2023-03-21T14:03:11;17.00;99.90
20977;DHT22;10647;51.016;3.720;2023-03-21T14:05:38;16.90;99.90
20977;DHT22;10647;51.016;3.720;2023-03-21T14:08:08;16.60;99.90
20977;DHT22;10647;51.016;3.720;2023-03-21T14:10:56;16.50;99.90
20977;DHT22;10647;51.016;3.720;2023-03-21T14:13:27;16.80;99.90
20977;DHT22;10647;51.016;3.720;2023-03-21T14:16:03;17.20;99.90
20977;DHT22;10647;51.016;3.720;2023-03-21T14:18:27;17.30;99.90
20977;DHT22;10647;51.016;3.720;2023-03-21T14:21:00;17.20;99.90
20977;DHT22;10647;51.016;3.720;2023-03-21T14:23:28;17.40;99.90
20977;DHT22;10647;51.016;3.720;2023-03-21T14:25:55;17.40;99.90
20977;DHT22;10647;51.016;3.720;2023-03-21T14:28:27;17.40;99.90
20977;DHT22;10647;51.016;3.720;2023-03-21T14:31:04;17.40;99.90
20977;DHT22;10647;51.016;3.720;2023-03-21T14:36:15;17.40;99.90
20977;DHT22;10647;51.016;3.720;2023-03-21T14:38:43;17.50;99.90
20977;DHT22;10647;51.016;3.720;2023-03-21T14:41:28;17.90;99.90
20977;DHT22;10647;51.016;3.720;2023-03-21T14:46:58;18.50;99.90
20977;DHT22;10647;51.016;3.720;2023-03-21T14:51:52;19.10;99.90
20977;DHT22;10647;51.016;3.720;2023-03-21T14:54:20;19.00;99.90
20977;DHT22;10647;51.016;3.720;2023-03-21T14:59:40;19.10;99.90
20977;DHT22;10647;51.016;3.720;2023-03-21T15:02:16;18.90;99.90
20977;DHT22;10647;51.016;3.720;2023-03-21T15:05:15;18.90;99.90
20977;DHT22;10647;51.016;3.720;2023-03-21T15:07:51;18.70;99.90
20977;DHT22;10647;51.016;3.720;2023-03-21T15:10:15;18.60;99.90
20977;DHT22;10647;51.016;3.720;2023-03-21T15:12:51;18.20;99.90
20977;DHT22;10647;51.016;3.720;2023-03-21T15:15:19;18.10;99.90
20977;DHT22;10647;51.016;3.720;2023-03-21T15:17:49;18.00;99.90
20977;DHT22;10647;51.016;3.720;2023-03-21T15:20:21;17.80;99.90
20977;DHT22;10647;51.016;3.720;2023-03-21T15:22:56;17.60;99.90
20977;DHT22;10647;51.016;3.720;2023-03-21T15:25:24;17.40;99.90
20977;DHT22;10647;51.016;3.720;2023-03-21T15:27:51;17.20;99.90
20977;DHT22;10647;51.016;3.720;2023-03-21T15:30:27;17.30;99.90
20977;DHT22;10647;51.016;3.720;2023-03-21T15:32:50;17.50;99.90
20977;DHT22;10647;51.016;3.720;2023-03-21T15:35:39;17.60;99.90
20977;DHT22;10647;51.016;3.720;2023-03-21T15:38:22;17.80;99.90
20977;DHT22;10647;51.016;3.720;2023-03-21T15:40:50;17.90;99.90
20977;DHT22;10647;51.016;3.720;2023-03-21T15:43:19;18.20;99.90
20977;DHT22;10647;51.016;3.720;2023-03-21T15:45:49;18.20;99.90
20977;DHT22;10647;51.016;3.720;2023-03-21T15:48:26;18.10;99.90
20977;DHT22;10647;51.016;3.720;2023-03-21T15:53:33;18.20;99.90
20977;DHT22;10647;51.016;3.720;2023-03-21T15:56:02;18.10;99.90
20977;DHT22;10647;51.016;3.720;2023-03-21T15:58:34;18.10;99.90
20977;DHT22;10647;51.016;3.720;2023-03-21T16:01:04;18.30;99.90
20977;DHT22;10647;51.016;3.720;2023-03-21T16:03:35;18.40;99.90
20977;DHT22;10647;51.016;3.720;2023-03-21T16:06:05;18.40;99.90
20977;DHT22;10647;51.016;3.720;2023-03-21T16:08:35;18.30;99.90
20977;DHT22;10647;51.016;3.720;2023-03-21T16:11:22;18.30;99.90
20977;DHT22;10647;51.016;3.720;2023-03-21T16:14:04;18.10;99.90
20977;DHT22;10647;51.016;3.720;2023-03-21T16:16:32;17.80;99.90
20977;DHT22;10647;51.016;3.720;2023-03-21T16:19:00;17.80;99.90
20977;DHT22;10647;51.016;3.720;2023-03-21T16:21:30;17.90;99.90
20977;DHT22;10647;51.016;3.720;2023-03-21T16:23:59;17.90;99.90
20977;DHT22;10647;51.016;3.720;2023-03-21T16:26:33;17.90;99.90
20977;DHT22;10647;51.016;3.720;2023-03-21T16:29:01;17.80;99.90
20977;DHT22;10647;51.016;3.720;2023-03-21T16:31:31;17.80;99.90
20977;DHT22;10647;51.016;3.720;2023-03-21T16:33:59;17.90;99.90
20977;DHT22;10647;51.016;3.720;2023-03-21T16:36:35;17.90;99.90
20977;DHT22;10647;51.016;3.720;2023-03-21T16:42:03;17.70;99.90
20977;DHT22;10647;51.016;3.720;2023-03-21T16:44:31;17.50;99.90
20977;DHT22;10647;51.016;3.720;2023-03-21T16:46:59;17.30;99.90
20977;DHT22;10647;51.016;3.720;2023-03-21T16:49:27;17.20;99.90
20977;DHT22;10647;51.016;3.720;2023-03-21T16:51:55;17.10;99.90
20977;DHT22;10647;51.016;3.720;2023-03-21T16:54:23;17.10;99.90
20977;DHT22;10647;51.016;3.720;2023-03-21T16:56:53;16.90;99.90
20977;DHT22;10647;51.016;3.720;2023-03-21T16:59:21;16.80;99.90
20977;DHT22;10647;51.016;3.720;2023-03-21T17:01:49;16.80;99.90
20977;DHT22;10647;51.016;3.720;2023-03-21T17:04:17;16.70;99.90
20977;DHT22;10647;51.016;3.720;2023-03-21T17:06:47;16.70;99.90
20977;DHT22;10647;51.016;3.720;2023-03-21T17:09:19;16.60;99.90
20977;DHT22;10647;51.016;3.720;2023-03-21T17:11:46;16.60;99.90
20977;DHT22;10647;51.016;3.720;2023-03-21T17:14:15;16.40;99.90
20977;DHT22;10647;51.016;3.720;2023-03-21T17:16:44;16.40;99.90
20977;DHT22;10647;51.016;3.720;2023-03-21T17:19:16;16.40;99.90
20977;DHT22;10647;51.016;3.720;2023-03-21T17:21:51;16.40;99.90
20977;DHT22;10647;51.016;3.720;2023-03-21T17:24:20;16.30;99.90
20977;DHT22;10647;51.016;3.720;2023-03-21T17:26:49;16.30;99.90
20977;DHT22;10647;51.016;3.720;2023-03-21T17:29:17;16.40;99.90
20977;DHT22;10647;51.016;3.720;2023-03-21T17:31:45;16.40;99.90
20977;DHT22;10647;51.016;3.720;2023-03-21T17:34:14;16.50;99.90
20977;DHT22;10647;51.016;3.720;2023-03-21T17:36:44;16.50;99.90
20977;DHT22;10647;51.016;3.720;2023-03-21T17:39:22;16.50;99.90
20977;DHT22;10647;51.016;3.720;2023-03-21T17:41:45;16.60;99.90
20977;DHT22;10647;51.016;3.720;2023-03-21T17:44:12;16.60;99.90
20977;DHT22;10647;51.016;3.720;2023-03-21T17:46:40;16.60;99.90
20977;DHT22;10647;51.016;3.720;2023-03-21T17:49:09;16.50;99.90
20977;DHT22;10647;51.016;3.720;2023-03-21T17:51:39;16.50;99.90
20977;DHT22;10647;51.016;3.720;2023-03-21T17:54:06;16.40;99.90
20977;DHT22;10647;51.016;3.720;2023-03-21T17:56:35;16.30;99.90
20977;DHT22;10647;51.016;3.720;2023-03-21T17:59:10;16.20;99.90
20977;DHT22;10647;51.016;3.720;2023-03-21T18:01:39;15.90;99.90
20977;DHT22;10647;51.016;3.720;2023-03-21T18:04:07;15.80;99.90
20977;DHT22;10647;51.016;3.720;2023-03-21T18:06:35;15.60;99.90
20977;DHT22;10647;51.016;3.720;2023-03-21T18:09:04;15.60;99.90
20977;DHT22;10647;51.016;3.720;2023-03-21T18:11:39;15.50;99.90
20977;DHT22;10647;51.016;3.720;2023-03-21T18:14:06;15.40;99.90